Time;durP1;ratioP1;P1;durP2;ratioP2;P2;SDS_P1;SDS_P2;PMS_P1;PMS_P2;Temp;Humidity;BMP_temperature;BMP_pressure;BME280_temperature;BME280_humidity;BME280_pressure;Samples;Min_cycle;Max_cycle;Signal;HPM_P1;HPM_P2
2021/11/17 02:27:16;;;;;;;85.07;28.70;;;7.70;99.90;;;;;;5044354;28;20175;-65
2021/11/17 02:30:03;;;;;;;94.13;30.20;;;7.70;99.90;;;;;;4979400;28;20166;-65
2021/11/17 02:32:28;;;;;;;91.80;30.63;;;7.60;99.90;;;;;;4988501;28;20216;-65
2021/11/17 02:35:01;;;;;;;89.50;29.10;;;7.50;99.90;;;;;;5004931;28;20229;-65
2021/11/17 02:37:45;;;;;;;88.03;29.73;;;7.50;99.90;;;;;;5004491;28;20178;-65
2021/11/17 02:40:39;;;;;;;87.10;28.40;;;7.50;99.90;;;;;;4990438;28;20175;-65
2021/11/17 02:43:50;;;;;;;85.70;28.57;;;7.60;99.90;;;;;;5000818;28;20187;-65
2021/11/17 02:46:47;;;;;;;96.73;29.50;;;7.80;99.90;;;;;;4973276;28;20195;-65
2021/11/17 02:49:24;;;;;;;89.50;29.80;;;7.80;99.90;;;;;;4985326;28;20187;-65
2021/11/17 02:52:06;;;;;;;90.43;31.17;;;7.90;99.90;;;;;;4984473;28;20199;-65
2021/11/17 02:54:41;;;;;;;92.10;29.47;;;8.00;99.90;;;;;;4985098;28;20241;-65
2021/11/17 02:57:13;;;;;;;94.20;31.43;;;7.80;99.90;;;;;;4984923;28;20581;-65
2021/11/17 03:00:03;;;;;;;89.17;29.73;;;7.90;99.90;;;;;;4985279;28;20183;-65
2021/11/17 03:02:40;;;;;;;84.60;27.70;;;8.00;99.90;;;;;;4984795;28;20179;-65
2021/11/17 03:05:34;;;;;;;78.53;28.37;;;8.10;99.90;;;;;;5017330;28;20216;-66
2021/11/17 03:07:59;;;;;;;99.33;30.37;;;8.10;99.90;;;;;;5026885;28;20268;-65
2021/11/17 03:10:31;;;;;;;91.03;30.10;;;7.90;99.90;;;;;;5044028;28;20184;-65
2021/11/17 03:13:21;;;;;;;84.50;29.27;;;8.10;99.90;;;;;;5043817;28;20161;-65
2021/11/17 03:16:15;;;;;;;97.23;29.30;;;8.20;99.90;;;;;;5043788;28;20177;-65
2021/11/17 03:18:59;;;;;;;92.70;28.73;;;8.20;99.90;;;;;;5013378;28;20172;-65
2021/11/17 03:21:40;;;;;;;89.77;29.17;;;7.90;99.90;;;;;;5050307;28;20192;-65
2021/11/17 03:24:24;;;;;;;92.03;28.47;;;7.90;99.90;;;;;;5065988;28;20243;-65
2021/11/17 03:27:27;;;;;;;90.23;28.33;;;8.00;99.90;;;;;;5064603;28;20195;-65
2021/11/17 03:30:15;;;;;;;97.03;29.67;;;8.00;99.90;;;;;;5066008;28;20175;-65
2021/11/17 03:32:52;;;;;;;94.37;30.03;;;8.30;99.90;;;;;;5065606;28;20168;-65
2021/11/17 03:35:18;;;;;;;91.47;28.40;;;8.40;99.90;;;;;;5065839;28;20430;-65
2021/11/17 03:38:12;;;;;;;91.13;29.13;;;8.40;99.90;;;;;;5065196;28;20176;-65
2021/11/17 03:41:13;;;;;;;93.00;27.73;;;8.20;99.90;;;;;;5067464;28;20241;-65
2021/11/17 03:44:01;;;;;;;89.73;28.83;;;8.10;99.90;;;;;;5010917;28;20170;-65
2021/11/17 03:47:13;;;;;;;97.20;29.23;;;8.00;99.90;;;;;;5027510;28;20168;-65
2021/11/17 03:49:48;;;;;;;88.97;28.27;;;8.00;99.90;;;;;;5017641;28;20206;-65
2021/11/17 03:53:10;;;;;;;95.43;29.07;;;8.20;99.90;;;;;;5026843;28;20207;-65
2021/11/17 03:55:48;;;;;;;97.93;28.33;;;8.00;99.90;;;;;;4988355;28;20735;-65
2021/11/17 03:58:48;;;;;;;84.53;27.63;;;8.00;99.90;;;;;;4972514;28;20175;-65
2021/11/17 04:01:31;;;;;;;93.10;27.87;;;8.00;99.90;;;;;;4967274;28;20191;-65
2021/11/17 04:04:13;;;;;;;96.53;28.03;;;7.90;99.90;;;;;;4988198;28;20225;-65
2021/11/17 04:07:06;;;;;;;98.37;28.53;;;8.00;99.90;;;;;;4972794;28;20179;-64
2021/11/17 04:09:54;;;;;;;89.77;27.37;;;8.00;99.90;;;;;;4972845;28;20168;-65
2021/11/17 04:12:22;;;;;;;81.47;27.20;;;8.10;99.90;;;;;;4987406;28;20194;-65
2021/11/17 04:15:00;;;;;;;95.87;28.93;;;8.10;99.90;;;;;;4987562;28;20219;-65
2021/11/17 04:17:41;;;;;;;97.60;29.37;;;8.10;99.90;;;;;;4971796;28;20222;-65
2021/11/17 04:20:35;;;;;;;97.07;28.87;;;8.20;99.90;;;;;;4981492;28;20185;-64
2021/11/17 04:23:18;;;;;;;100.27;29.30;;;8.20;99.90;;;;;;5006802;28;20198;-65
2021/11/17 04:26:29;;;;;;;96.47;27.23;;;8.20;99.90;;;;;;5029596;28;20219;-65
2021/11/17 04:29:27;;;;;;;101.43;29.87;;;8.20;99.90;;;;;;5067537;28;20153;-65
2021/11/17 04:32:05;;;;;;;100.43;29.67;;;8.20;99.90;;;;;;5047131;28;20184;-65
2021/11/17 04:35:08;;;;;;;106.33;29.20;;;8.30;99.90;;;;;;5068668;28;20175;-65
2021/11/17 04:37:58;;;;;;;93.93;29.27;;;8.20;99.90;;;;;;5068110;28;20165;-65
2021/11/17 04:40:30;;;;;;;106.27;29.73;;;8.10;99.90;;;;;;5067322;28;20157;-65
2021/11/17 04:43:05;;;;;;;109.87;30.77;;;8.20;99.90;;;;;;5068314;28;20232;-65
2021/11/17 04:45:30;;;;;;;92.90;28.20;;;8.30;99.90;;;;;;5068446;28;20184;-65
2021/11/17 04:48:30;;;;;;;100.93;28.93;;;8.40;99.90;;;;;;5068360;28;20179;-65
2021/11/17 04:50:59;;;;;;;99.50;27.40;;;8.40;99.90;;;;;;5065685;28;20168;-65
2021/11/17 04:54:19;;;;;;;96.10;28.07;;;8.30;99.90;;;;;;5067944;28;20207;-65
2021/11/17 04:56:56;;;;;;;90.10;27.00;;;8.30;99.90;;;;;;5010808;28;20309;-65
2021/11/17 04:59:25;;;;;;;92.10;27.90;;;8.20;99.90;;;;;;5026285;28;20169;-65
2021/11/17 05:02:02;;;;;;;107.50;32.00;;;8.40;99.90;;;;;;5024898;28;20499;-65
2021/11/17 05:04:58;;;;;;;93.20;29.33;;;8.30;99.90;;;;;;5025996;28;20182;-65
2021/11/17 05:07:46;;;;;;;102.23;29.50;;;8.20;99.90;;;;;;5025209;28;20224;-65
2021/11/17 05:10:23;;;;;;;103.60;28.27;;;8.10;99.90;;;;;;5026045;28;20174;-65
2021/11/17 05:12:59;;;;;;;103.25;32.45;;;8.00;99.90;;;;;;5024399;28;20879;-65
2021/11/17 05:15:50;;;;;;;100.27;29.70;;;8.10;99.90;;;;;;5025972;28;20162;-65
2021/11/17 05:18:33;;;;;;;96.27;28.63;;;8.30;99.90;;;;;;4993536;28;20170;-65
2021/11/17 05:21:18;;;;;;;95.07;28.73;;;8.20;99.90;;;;;;5025450;28;20181;-65
2021/11/17 05:23:53;;;;;;;94.73;29.17;;;8.30;99.90;;;;;;5025141;28;20198;-65
2021/11/17 05:26:27;;;;;;;95.83;28.40;;;8.30;99.90;;;;;;5025588;28;20185;-65
2021/11/17 05:28:59;;;;;;;100.82;32.55;;;8.20;99.90;;;;;;5024939;28;20423;-65
2021/11/17 05:31:58;;;;;;;92.90;27.67;;;8.20;99.90;;;;;;5008774;28;20257;-65
2021/11/17 05:34:54;;;;;;;92.63;28.27;;;8.30;99.90;;;;;;5067586;28;20160;-66
2021/11/17 05:37:28;;;;;;;101.40;29.40;;;8.30;99.90;;;;;;5065770;28;20228;-65
2021/11/17 05:39:57;;;;;;;96.03;29.97;;;8.30;99.90;;;;;;5066330;28;20242;-65
2021/11/17 05:42:35;;;;;;;91.17;29.40;;;8.20;99.90;;;;;;5067005;28;20263;-65
2021/11/17 05:45:33;;;;;;;97.70;31.00;;;8.10;99.90;;;;;;5066049;28;20187;-65
2021/11/17 05:48:14;;;;;;;102.10;28.50;;;8.30;99.90;;;;;;5066979;28;20157;-65
2021/11/17 05:50:49;;;;;;;92.67;28.17;;;8.20;99.90;;;;;;5065960;28;20141;-65
2021/11/17 05:53:45;;;;;;;111.93;29.57;;;8.20;99.90;;;;;;5066608;28;20182;-65
2021/11/17 05:56:38;;;;;;;95.37;28.33;;;8.20;99.90;;;;;;5066970;28;20172;-65
2021/11/17 05:59:22;;;;;;;96.83;30.27;;;8.30;99.90;;;;;;5067021;28;20149;-66
2021/11/17 06:01:53;;;;;;;85.33;27.50;;;8.30;99.90;;;;;;5065235;28;20192;-65
2021/11/17 06:04:19;;;;;;;82.77;27.03;;;8.20;99.90;;;;;;5066778;28;20196;-66
2021/11/17 06:06:44;;;;;;;90.77;28.83;;;8.30;99.90;;;;;;5066186;28;20249;-65
2021/11/17 06:09:10;;;;;;;85.00;27.33;;;8.20;99.90;;;;;;5066719;28;20219;-65
2021/11/17 06:11:39;;;;;;;74.60;24.70;;;8.40;99.90;;;;;;5065019;28;20180;-66
2021/11/17 06:14:08;;;;;;;79.40;25.57;;;8.30;99.90;;;;;;5066357;28;20221;-66
2021/11/17 06:16:45;;;;;;;80.63;25.37;;;8.30;99.90;;;;;;5066356;28;20168;-65
2021/11/17 06:19:12;;;;;;;68.97;23.00;;;8.30;99.90;;;;;;5066634;28;20183;-66
2021/11/17 06:21:41;;;;;;;72.70;23.30;;;8.30;99.90;;;;;;5066149;28;20173;-65
2021/11/17 06:24:08;;;;;;;72.90;24.70;;;8.40;99.90;;;;;;5066073;28;20189;-65
2021/11/17 06:26:37;;;;;;;60.77;24.00;;;8.20;99.90;;;;;;5066129;28;20298;-65
2021/11/17 06:29:07;;;;;;;68.23;24.17;;;8.30;99.90;;;;;;5066446;28;20171;-65
2021/11/17 06:31:38;;;;;;;72.67;24.67;;;8.40;99.90;;;;;;5065738;28;20183;-65
2021/11/17 06:34:22;;;;;;;67.03;22.43;;;8.40;99.90;;;;;;5064697;28;20168;-66
2021/11/17 06:36:48;;;;;;;67.90;23.27;;;8.40;99.90;;;;;;5065482;28;20164;-65
2021/11/17 06:39:13;;;;;;;67.03;23.33;;;8.30;99.90;;;;;;5065045;28;20529;-65
2021/11/17 06:41:39;;;;;;;62.07;21.90;;;8.30;99.90;;;;;;5064900;28;20168;-65
2021/11/17 06:44:05;;;;;;;64.93;23.27;;;8.30;99.90;;;;;;5066015;28;20188;-65
2021/11/17 06:46:30;;;;;;;62.80;22.80;;;8.50;99.90;;;;;;5065908;28;20169;-65
2021/11/17 06:48:56;;;;;;;77.67;27.07;;;8.70;99.90;;;;;;5065181;28;20432;-65
2021/11/17 06:51:21;;;;;;;68.03;22.60;;;8.70;99.90;;;;;;5065544;28;20168;-65
2021/11/17 06:53:47;;;;;;;68.53;22.27;;;8.50;99.90;;;;;;5065597;28;20177;-65
2021/11/17 06:56:13;;;;;;;71.10;25.65;;;8.50;99.90;;;;;;5065301;28;20415;-65
2021/11/17 06:58:38;;;;;;;68.57;22.47;;;8.70;99.90;;;;;;5066029;28;20168;-65
2021/11/17 07:01:04;;;;;;;71.63;21.90;;;8.70;99.90;;;;;;5065714;28;20161;-65
2021/11/17 07:03:30;;;;;;;66.90;22.53;;;8.60;99.90;;;;;;5065810;28;20610;-65
2021/11/17 07:05:56;;;;;;;79.03;26.10;;;8.60;99.90;;;;;;5064961;28;20404;-65
2021/11/17 07:08:23;;;;;;;71.70;22.93;;;8.70;99.90;;;;;;5065271;28;20217;-65
2021/11/17 07:10:49;;;;;;;71.23;23.03;;;8.70;99.90;;;;;;5065836;28;20183;-65
2021/11/17 07:13:15;;;;;;;66.63;22.27;;;8.70;99.90;;;;;;5065236;28;20216;-65
2021/11/17 07:15:41;;;;;;;75.27;24.37;;;8.60;99.90;;;;;;5068688;28;20172;-65
2021/11/17 07:18:07;;;;;;;74.90;23.97;;;8.50;99.90;;;;;;5069933;28;20156;-65
2021/11/17 07:20:34;;;;;;;77.57;23.50;;;8.70;99.90;;;;;;5069901;28;20172;-65
2021/11/17 07:23:00;;;;;;;76.83;21.83;;;8.70;99.90;;;;;;5067873;28;20178;-66
2021/11/17 07:25:26;;;;;;;75.30;23.57;;;8.60;99.90;;;;;;5069714;28;20259;-65
2021/11/17 07:27:52;;;;;;;90.77;24.10;;;8.50;99.90;;;;;;5069579;28;20164;-65
2021/11/17 07:30:21;;;;;;;73.53;23.67;;;8.50;99.90;;;;;;5069849;28;20164;-65
2021/11/17 07:32:49;;;;;;;66.83;21.90;;;8.40;99.90;;;;;;5069325;28;20202;-65
2021/11/17 07:35:16;;;;;;;80.50;23.53;;;8.50;99.90;;;;;;5069602;28;20634;-65
2021/11/17 07:37:41;;;;;;;84.67;24.10;;;8.50;99.90;;;;;;5068907;28;20206;-65
2021/11/17 07:40:10;;;;;;;82.97;25.20;;;8.80;99.90;;;;;;5069646;28;20207;-65
2021/11/17 07:42:36;;;;;;;85.13;23.67;;;8.80;99.90;;;;;;5069214;28;20177;-65
2021/11/17 07:45:03;;;;;;;91.97;26.30;;;8.80;99.90;;;;;;5069455;28;20196;-65
2021/11/17 07:47:28;;;;;;;99.10;27.37;;;8.70;99.90;;;;;;5069046;28;20168;-65
2021/11/17 07:49:54;;;;;;;97.53;26.20;;;8.60;99.90;;;;;;5069296;28;20199;-65
2021/11/17 07:52:19;;;;;;;112.80;25.80;;;8.70;99.90;;;;;;5068810;28;20240;-65
2021/11/17 07:54:45;;;;;;;93.27;26.60;;;8.80;99.90;;;;;;5069186;28;20326;-65
2021/11/17 07:57:11;;;;;;;90.10;25.93;;;8.80;99.90;;;;;;5069182;28;20175;-66
2021/11/17 07:59:39;;;;;;;99.30;28.77;;;8.80;99.90;;;;;;5069255;28;20177;-65
2021/11/17 08:02:09;;;;;;;100.00;27.43;;;8.70;99.90;;;;;;5068713;28;20715;-65
2021/11/17 08:04:37;;;;;;;102.30;26.27;;;8.70;99.90;;;;;;5069168;28;20195;-65
2021/11/17 08:07:13;;;;;;;86.70;25.90;;;8.70;99.90;;;;;;5068625;28;20220;-65
2021/11/17 08:09:39;;;;;;;95.23;26.27;;;8.80;99.90;;;;;;5069071;28;20140;-65
2021/11/17 08:12:06;;;;;;;96.00;26.03;;;8.80;99.90;;;;;;5068761;28;20169;-65
2021/11/17 08:14:32;;;;;;;94.70;25.97;;;8.80;99.90;;;;;;5068753;28;20228;-65
2021/11/17 08:16:57;;;;;;;89.47;26.20;;;8.80;99.90;;;;;;5068944;28;20175;-65
2021/11/17 08:19:23;;;;;;;90.67;26.57;;;8.80;99.90;;;;;;5068759;28;20156;-65
2021/11/17 08:21:49;;;;;;;83.10;24.07;;;8.80;99.90;;;;;;5068337;28;20654;-65
2021/11/17 08:24:14;;;;;;;89.93;24.83;;;8.70;99.90;;;;;;5068210;28;20662;-65
2021/11/17 08:26:40;;;;;;;86.07;25.97;;;8.80;99.90;;;;;;5068387;28;20235;-65
2021/11/17 08:29:06;;;;;;;81.73;25.47;;;8.80;99.90;;;;;;5068627;28;20173;-65
2021/11/17 08:31:32;;;;;;;82.70;25.23;;;9.00;99.90;;;;;;5068363;28;20161;-65
2021/11/17 08:33:57;;;;;;;95.93;26.13;;;9.10;99.90;;;;;;5068516;28;20172;-65
2021/11/17 08:36:24;;;;;;;86.17;25.17;;;9.20;99.90;;;;;;5068577;28;20200;-65
2021/11/17 08:38:52;;;;;;;91.47;25.20;;;9.20;99.90;;;;;;5067993;28;20175;-65
2021/11/17 08:41:18;;;;;;;79.97;24.80;;;9.10;99.90;;;;;;5067073;28;20168;-65
2021/11/17 08:43:44;;;;;;;84.13;25.70;;;9.10;99.90;;;;;;5068273;28;20190;-66
2021/11/17 08:46:09;;;;;;;79.33;23.83;;;9.20;99.90;;;;;;5068371;28;20168;-65
2021/11/17 08:48:37;;;;;;;82.07;24.63;;;9.20;99.90;;;;;;5067952;28;20191;-66
2021/11/17 08:51:06;;;;;;;85.47;25.87;;;9.10;99.90;;;;;;5067808;28;20157;-65
2021/11/17 08:53:34;;;;;;;83.40;25.33;;;9.20;99.90;;;;;;5067576;28;20165;-65
2021/11/17 08:56:04;;;;;;;79.60;24.03;;;9.30;99.90;;;;;;5067702;28;20164;-65
2021/11/17 08:58:30;;;;;;;87.33;25.60;;;9.30;99.90;;;;;;5068063;28;20161;-65
2021/11/17 09:00:56;;;;;;;81.67;25.43;;;9.30;99.90;;;;;;5067866;28;20195;-66
2021/11/17 09:03:22;;;;;;;75.50;25.73;;;9.30;99.90;;;;;;5067518;28;20200;-65
2021/11/17 09:05:52;;;;;;;86.60;24.67;;;9.20;99.90;;;;;;5066475;28;20595;-65
2021/11/17 09:08:22;;;;;;;80.07;24.23;;;9.30;99.90;;;;;;5067288;28;20232;-65
2021/11/17 09:10:51;;;;;;;89.60;26.50;;;9.30;99.90;;;;;;5067672;28;20146;-65
2021/11/17 09:13:18;;;;;;;94.67;27.57;;;9.20;99.90;;;;;;5067411;28;20201;-65
2021/11/17 09:15:47;;;;;;;80.07;27.17;;;9.30;99.90;;;;;;5066516;28;20183;-65
2021/11/17 09:18:15;;;;;;;75.70;25.47;;;9.30;99.90;;;;;;5067966;28;20196;-65
2021/11/17 09:20:41;;;;;;;84.33;26.27;;;9.40;99.90;;;;;;5067459;28;20171;-65
2021/11/17 09:23:09;;;;;;;86.97;26.23;;;9.40;99.90;;;;;;5066688;28;20181;-65
2021/11/17 09:25:35;;;;;;;81.40;27.60;;;9.40;99.90;;;;;;5067430;28;20204;-65
2021/11/17 09:28:02;;;;;;;83.13;26.93;;;9.40;99.90;;;;;;5065914;28;20532;-65
2021/11/17 09:30:31;;;;;;;82.77;27.20;;;9.60;99.90;;;;;;5067483;28;20164;-65
2021/11/17 09:33:00;;;;;;;77.37;26.70;;;9.80;99.90;;;;;;5067023;28;20186;-65
2021/11/17 09:35:33;;;;;;;80.80;27.17;;;10.10;99.90;;;;;;5067386;28;20172;-65
2021/11/17 09:37:59;;;;;;;72.70;25.83;;;10.10;99.90;;;;;;5064728;28;20176;-65
2021/11/17 09:40:28;;;;;;;73.17;26.20;;;10.10;99.90;;;;;;5067147;28;20169;-65
2021/11/17 09:42:55;;;;;;;75.87;27.37;;;10.20;99.90;;;;;;5066708;28;20179;-66
2021/11/17 09:45:22;;;;;;;72.37;25.50;;;10.10;99.90;;;;;;5066759;28;20196;-65
2021/11/17 09:47:49;;;;;;;65.07;26.33;;;10.10;99.90;;;;;;5066991;28;20161;-66
2021/11/17 09:50:25;;;;;;;77.73;27.43;;;10.10;99.90;;;;;;5066847;28;20618;-65
2021/11/17 09:53:05;;;;;;;66.77;26.53;;;10.20;99.90;;;;;;5066535;28;20172;-66
2021/11/17 09:55:45;;;;;;;73.67;26.47;;;10.20;99.90;;;;;;5067066;28;20157;-65
2021/11/17 09:58:33;;;;;;;74.87;27.73;;;10.30;99.90;;;;;;5066754;28;20226;-65
2021/11/17 10:01:18;;;;;;;77.07;26.60;;;10.40;99.90;;;;;;5066436;28;20168;-65
2021/11/17 10:03:52;;;;;;;82.03;27.43;;;10.40;99.90;;;;;;5066360;28;20184;-65
2021/11/17 10:14:54;;;;;;;76.40;28.10;;;10.10;99.90;;;;;;5066262;28;20222;-65
2021/11/17 10:17:37;;;;;;;75.23;26.33;;;10.20;99.90;;;;;;5066206;28;20164;-65
2021/11/17 10:20:05;;;;;;;80.47;26.83;;;10.20;99.90;;;;;;5066404;28;20161;-66
2021/11/17 10:22:31;;;;;;;66.47;26.97;;;10.30;99.90;;;;;;5065460;28;20176;-66
2021/11/17 10:25:10;;;;;;;68.53;26.33;;;10.30;99.90;;;;;;5066211;28;20230;-65
2021/11/17 10:27:45;;;;;;;74.40;29.20;;;10.30;99.90;;;;;;5065918;28;20169;-67
2021/11/17 10:30:30;;;;;;;71.35;26.65;;;10.50;99.90;;;;;;5066297;28;20171;-66
2021/11/17 10:33:07;;;;;;;70.07;27.37;;;10.60;99.90;;;;;;5065768;28;20175;-65
2021/11/17 10:35:43;;;;;;;78.77;27.77;;;10.60;99.90;;;;;;5066208;28;20214;-66
2021/11/17 10:38:20;;;;;;;72.77;27.30;;;10.70;99.90;;;;;;5065576;28;20240;-65
2021/11/17 10:40:53;;;;;;;69.03;26.60;;;10.60;99.90;;;;;;5065948;28;20160;-66
2021/11/17 10:43:50;;;;;;;69.57;26.63;;;10.60;99.90;;;;;;5065593;28;20188;-66
2021/11/17 10:46:24;;;;;;;75.77;27.50;;;10.60;99.90;;;;;;5066251;28;20552;-66
2021/11/17 10:48:57;;;;;;;69.10;26.93;;;10.70;99.90;;;;;;5066030;28;20154;-66
2021/11/17 10:51:34;;;;;;;78.53;27.43;;;10.60;99.90;;;;;;5065815;28;20191;-66
2021/11/17 10:54:06;;;;;;;72.93;27.23;;;10.80;99.90;;;;;;5065519;28;20172;-65
2021/11/17 10:56:32;;;;;;;68.23;27.43;;;10.90;99.90;;;;;;5064496;28;20187;-65
2021/11/17 10:59:00;;;;;;;60.43;26.00;;;11.00;99.90;;;;;;5066099;28;20164;-66
2021/11/17 11:01:37;;;;;;;71.80;27.90;;;11.10;99.90;;;;;;5064182;28;20160;-65
2021/11/17 11:04:14;;;;;;;66.75;25.88;;;11.20;99.90;;;;;;5065614;28;20314;-66
2021/11/17 11:06:49;;;;;;;65.85;26.33;;;11.10;99.90;;;;;;5065761;28;20199;-65
2021/11/17 11:09:17;;;;;;;69.13;29.70;;;11.10;99.90;;;;;;5064855;28;20408;-66
2021/11/17 11:11:54;;;;;;;65.47;28.42;;;11.30;99.90;;;;;;5065467;28;20160;-65
2021/11/17 11:14:23;;;;;;;63.97;26.08;;;11.30;99.90;;;;;;5065144;28;20216;-66
2021/11/17 11:16:50;;;;;;;56.75;25.45;;;11.30;99.90;;;;;;5065680;28;20196;-66
2021/11/17 11:19:17;;;;;;;72.03;30.83;;;11.30;99.90;;;;;;5064287;28;20422;-66
2021/11/17 11:21:46;;;;;;;57.10;26.63;;;11.40;99.90;;;;;;5065432;28;20687;-65
2021/11/17 11:24:26;;;;;;;58.55;27.05;;;11.40;99.90;;;;;;5065237;28;20306;-65
2021/11/17 11:27:00;;;;;;;63.85;26.25;;;11.40;99.90;;;;;;5065503;28;20152;-65
2021/11/17 11:29:30;;;;;;;64.50;29.55;;;11.50;99.90;;;;;;5063856;28;20411;-65
2021/11/17 11:32:14;;;;;;;66.65;29.40;;;11.50;99.90;;;;;;5064409;28;20164;-66
2021/11/17 11:34:42;;;;;;;57.80;26.60;;;11.60;99.90;;;;;;5063786;28;20204;-65
2021/11/17 11:37:31;;;;;;;60.92;26.73;;;11.90;99.90;;;;;;5064753;28;20169;-67
2021/11/17 11:40:05;;;;;;;55.72;25.88;;;12.00;99.90;;;;;;5065107;28;20671;-66
2021/11/17 11:42:57;;;;;;;55.08;25.25;;;11.90;99.90;;;;;;5065381;28;20191;-65
2021/11/17 11:45:25;;;;;;;48.17;23.75;;;11.90;99.90;;;;;;5065385;28;20185;-65
2021/11/17 11:48:12;;;;;;;53.10;25.50;;;11.90;99.90;;;;;;5065557;28;20191;-65
2021/11/17 11:50:49;;;;;;;51.20;23.65;;;12.10;99.90;;;;;;5064301;28;20180;-65
2021/11/17 11:53:21;;;;;;;49.70;23.85;;;12.20;99.90;;;;;;5065185;28;20167;-65
2021/11/17 11:55:49;;;;;;;50.05;23.35;;;12.40;99.90;;;;;;5065349;28;20176;-65
2021/11/17 11:58:23;;;;;;;43.97;22.23;;;12.50;99.90;;;;;;5065297;28;20169;-65
2021/11/17 12:01:19;;;;;;;43.42;22.50;;;12.40;99.90;;;;;;5066859;28;20161;-65
2021/11/17 12:03:56;;;;;;;38.47;20.98;;;12.40;99.90;;;;;;5068760;28;20176;-65
2021/11/17 12:06:31;;;;;;;43.90;21.63;;;12.50;99.90;;;;;;5069143;28;20164;-65
2021/11/17 12:09:19;;;;;;;36.10;20.98;;;12.40;99.90;;;;;;5068578;28;20195;-65
2021/11/17 12:11:49;;;;;;;38.80;19.05;;;12.60;99.90;;;;;;5068578;28;20529;-65
2021/11/17 12:14:27;;;;;;;32.45;18.25;;;12.70;99.90;;;;;;5068531;28;20227;-66
2021/11/17 12:16:54;;;;;;;39.42;19.73;;;12.90;99.90;;;;;;5068754;28;20171;-65
2021/11/17 12:19:21;;;;;;;37.47;18.70;;;12.90;99.90;;;;;;5068785;28;20203;-65
2021/11/17 12:21:59;;;;;;;32.97;16.58;;;13.10;99.90;;;;;;5068767;28;20164;-65
2021/11/17 12:24:27;;;;;;;30.42;15.65;;;13.20;99.90;;;;;;5068608;28;20195;-65
2021/11/17 12:27:17;;;;;;;29.10;15.13;;;13.20;99.90;;;;;;5068390;28;20157;-65
2021/11/17 12:29:54;;;;;;;28.05;15.38;;;13.10;99.90;;;;;;5068129;28;20153;-66
2021/11/17 12:32:52;;;;;;;26.92;14.73;;;13.00;99.90;;;;;;5067950;28;20165;-65
2021/11/17 12:35:21;;;;;;;28.90;14.90;;;13.10;99.90;;;;;;5060163;28;20191;-65
2021/11/17 12:37:52;;;;;;;36.03;14.45;;;12.90;99.90;;;;;;5067975;28;20276;-65
2021/11/17 12:40:54;;;;;;;26.67;15.13;;;12.80;99.90;;;;;;5067020;28;20161;-65
2021/11/17 12:43:39;;;;;;;27.80;14.07;;;12.50;99.90;;;;;;5068020;28;20230;-65
2021/11/17 12:46:29;;;;;;;25.88;13.82;;;12.60;99.90;;;;;;5068313;28;20156;-65
2021/11/17 12:49:11;;;;;;;27.10;14.43;;;12.70;99.90;;;;;;5066694;28;20180;-65
2021/11/17 12:51:54;;;;;;;24.50;14.63;;;12.60;99.90;;;;;;5068209;28;20164;-65
2021/11/17 12:54:23;;;;;;;23.95;13.60;;;12.60;99.90;;;;;;5067965;28;20200;-65
2021/11/17 12:56:54;;;;;;;27.13;12.63;;;12.60;99.90;;;;;;5068132;28;20224;-66
2021/11/17 12:59:46;;;;;;;27.23;13.25;;;12.50;99.90;;;;;;5068057;28;20175;-65
2021/11/17 13:02:20;;;;;;;30.90;12.63;;;12.50;99.90;;;;;;5067618;28;20203;-66
2021/11/17 13:04:50;;;;;;;30.50;13.38;;;12.50;99.90;;;;;;5067759;28;20199;-66
2021/11/17 13:07:35;;;;;;;22.67;12.38;;;12.50;99.90;;;;;;5065765;28;20160;-65
2021/11/17 13:10:03;;;;;;;22.40;12.15;;;12.70;99.90;;;;;;5067407;28;20498;-65
2021/11/17 13:12:30;;;;;;;24.88;12.27;;;12.70;99.90;;;;;;5063761;28;20172;-65
2021/11/17 13:15:09;;;;;;;29.20;11.35;;;12.60;99.90;;;;;;5066034;28;20540;-65
2021/11/17 13:17:45;;;;;;;16.40;8.10;;;12.50;99.90;;;;;;5067634;28;20609;-65
2021/11/17 13:20:14;;;;;;;24.77;8.95;;;12.30;99.90;;;;;;5067432;28;20168;-65
2021/11/17 13:22:46;;;;;;;24.95;7.90;;;12.30;99.90;;;;;;5066775;28;20186;-65
2021/11/17 13:25:26;;;;;;;30.00;8.23;;;12.30;99.90;;;;;;5067211;28;20189;-65
2021/11/17 13:28:03;;;;;;;22.85;6.80;;;12.30;99.90;;;;;;5065560;28;20164;-66
2021/11/17 13:30:28;;;;;;;22.25;7.72;;;12.30;99.90;;;;;;5067098;28;20157;-66
2021/11/17 13:32:55;;;;;;;25.65;6.90;;;12.40;99.90;;;;;;5066874;28;20229;-66
2021/11/17 13:35:26;;;;;;;33.15;7.75;;;12.50;99.90;;;;;;5067203;28;20227;-66
2021/11/17 13:38:17;;;;;;;19.95;5.60;;;12.40;99.90;;;;;;5066770;28;20169;-66
2021/11/17 13:40:45;;;;;;;23.73;6.88;;;12.50;99.90;;;;;;5066948;28;20173;-66
2021/11/17 13:43:11;;;;;;;29.52;8.52;;;12.50;99.90;;;;;;5066576;28;20199;-66
2021/11/17 13:45:38;;;;;;;37.65;9.25;;;12.50;99.90;;;;;;5065202;28;20279;-66
2021/11/17 13:48:04;;;;;;;28.15;9.50;;;12.50;99.90;;;;;;5066698;28;20165;-66
2021/11/17 13:50:35;;;;;;;30.77;9.15;;;12.40;99.90;;;;;;5066995;28;20168;-66
2021/11/17 13:53:05;;;;;;;20.75;8.45;;;12.40;99.90;;;;;;5066446;28;20179;-66
2021/11/17 13:55:33;;;;;;;28.02;8.27;;;12.40;99.90;;;;;;5067196;28;20224;-66
2021/11/17 13:58:03;;;;;;;33.97;8.18;;;12.50;99.90;;;;;;5066642;28;20562;-66
2021/11/17 14:00:28;;;;;;;27.77;10.18;;;12.60;99.90;;;;;;5066913;28;20165;-66
2021/11/17 14:02:54;;;;;;;30.63;12.05;;;12.50;99.90;;;;;;5066460;28;20248;-66
2021/11/17 14:05:21;;;;;;;30.63;9.85;;;12.40;99.90;;;;;;5066730;28;20550;-66
2021/11/17 14:07:49;;;;;;;22.75;5.85;;;12.40;99.90;;;;;;5066192;28;20163;-66
2021/11/17 14:10:17;;;;;;;18.13;5.93;;;12.40;99.90;;;;;;5066726;28;20164;-66
2021/11/17 14:12:43;;;;;;;15.73;5.18;;;12.40;99.90;;;;;;5065272;28;20188;-66
2021/11/17 14:15:11;;;;;;;15.65;2.95;;;12.30;99.90;;;;;;5066339;28;20274;-66
2021/11/17 14:17:37;;;;;;;22.90;5.35;;;12.30;99.90;;;;;;5066218;28;20211;-66
2021/11/17 14:20:07;;;;;;;17.83;4.07;;;12.30;99.90;;;;;;5066241;28;20171;-66
2021/11/17 14:22:33;;;;;;;11.48;4.75;;;12.30;99.90;;;;;;5065766;28;20176;-66
2021/11/17 14:25:07;;;;;;;17.23;4.68;;;12.40;99.90;;;;;;5064745;28;20220;-66
2021/11/17 14:27:34;;;;;;;22.00;4.88;;;12.60;99.90;;;;;;5066268;28;20173;-66
2021/11/17 14:30:07;;;;;;;14.90;4.45;;;12.50;99.90;;;;;;5064706;28;20211;-66
2021/11/17 14:32:36;;;;;;;10.63;3.97;;;12.30;99.90;;;;;;5065571;28;20544;-66
2021/11/17 14:35:04;;;;;;;11.75;3.45;;;12.30;99.90;;;;;;5066028;28;20161;-66
2021/11/17 14:37:30;;;;;;;10.52;2.42;;;12.20;99.90;;;;;;5065645;28;20176;-66
2021/11/17 14:39:56;;;;;;;21.17;3.30;;;12.10;99.90;;;;;;5066096;28;20141;-66
2021/11/17 14:42:22;;;;;;;12.05;3.15;;;12.00;99.90;;;;;;5064717;28;20173;-66
2021/11/17 14:44:47;;;;;;;13.07;4.07;;;11.90;99.90;;;;;;5066113;28;20195;-66
2021/11/17 14:47:15;;;;;;;18.90;6.88;;;12.10;99.90;;;;;;5065966;28;20195;-66
2021/11/17 14:49:41;;;;;;;21.02;4.35;;;12.20;99.90;;;;;;5065911;28;20161;-66
2021/11/17 14:52:14;;;;;;;23.33;3.78;;;12.30;99.90;;;;;;5065372;28;20161;-65
2021/11/17 14:54:40;;;;;;;20.48;5.68;;;12.40;99.90;;;;;;5065993;28;20161;-66
2021/11/17 14:57:06;;;;;;;23.27;4.25;;;12.50;99.90;;;;;;5065714;28;20165;-66
2021/11/17 14:59:33;;;;;;;17.55;3.50;;;12.70;99.90;;;;;;5065943;28;20170;-66
2021/11/17 15:01:59;;;;;;;15.48;4.15;;;12.70;99.90;;;;;;5065406;28;20546;-66
2021/11/17 15:04:25;;;;;;;17.58;3.75;;;12.60;99.90;;;;;;5065577;28;20188;-66
2021/11/17 15:06:51;;;;;;;9.80;2.80;;;12.50;99.90;;;;;;5065731;28;20209;-66
2021/11/17 15:09:18;;;;;;;9.88;2.53;;;12.30;99.90;;;;;;5065490;28;20187;-66
2021/11/17 15:11:51;;;;;;;14.35;2.70;;;12.30;99.90;;;;;;5065883;28;20169;-66
2021/11/17 15:14:19;;;;;;;13.02;2.95;;;12.20;99.90;;;;;;5065156;28;20246;-66
2021/11/17 15:16:45;;;;;;;10.00;3.70;;;12.20;99.90;;;;;;5065664;28;20160;-66
2021/11/17 15:19:11;;;;;;;14.68;3.17;;;12.20;99.90;;;;;;5065540;28;20164;-66
2021/11/17 15:21:37;;;;;;;14.75;2.97;;;12.20;99.90;;;;;;5065621;28;20175;-66
2021/11/17 15:24:04;;;;;;;13.52;3.05;;;12.10;99.90;;;;;;5065043;28;20172;-66
2021/11/17 15:26:29;;;;;;;13.38;3.70;;;12.00;99.90;;;;;;5065162;28;20161;-66
2021/11/17 15:28:59;;;;;;;15.88;3.28;;;12.00;99.90;;;;;;5064558;28;20692;-66
2021/11/17 15:31:28;;;;;;;16.15;3.53;;;11.80;99.90;;;;;;5064797;28;20184;-66
2021/11/17 15:33:55;;;;;;;12.15;3.33;;;11.80;99.90;;;;;;5064354;28;20188;-66
2021/11/17 15:36:23;;;;;;;15.40;3.65;;;11.60;99.90;;;;;;5066173;28;20163;-66
2021/11/17 15:38:50;;;;;;;12.40;3.13;;;11.50;99.90;;;;;;5068828;28;20189;-66
2021/11/17 15:41:19;;;;;;;14.05;3.60;;;11.60;99.90;;;;;;5069007;28;20188;-66
2021/11/17 15:43:47;;;;;;;7.10;2.45;;;11.50;99.90;;;;;;5068766;28;20165;-66